Latest Weather Observations for Collie East

IDW60801

Issued at 9:13 pm WST Wednesday 26 September 2018 (issued every 10 minutes, with the page automatically refreshed every 10 minutes)

About weather observations | Map of weather stations | Latest weather observations for WA | Other Formats
Station Details ID: 009994 Name: COLLIE EAST Lat: -33.36 Lon: 116.17 Height: 200.0 m
Data from the previous 72 hours. | See also: Recent months at Collie East
Date/Time
WST
Temp
°C
App
Temp
°C
Dew
Point
°C
Rel
Hum
%
Delta-T
°C
Wind Press
QNH
hPa
Press
MSL
hPa
Rain since
9am
mm
Dir  Spd
km/h
Gust
km/h
Spd
kts
Gust
kts
26/09:00pm 9.6 8.8 6.7 82 1.4 CALM 0 0 0 0 - - 0.0
26/08:30pm 10.5 9.5 7.2 80 1.6 SSE 2 7 1 4 - - 0.0
26/08:00pm 11.0 9.7 7.7 80 1.6 S 4 9 2 5 - - 0.0
26/07:30pm 9.4 8.6 6.3 81 1.4 CALM 0 4 0 2 - - 0.0
26/07:00pm 10.8 10.0 6.7 76 2.0 CALM 0 0 0 0 - - 0.0
26/06:30pm 12.5 11.8 7.0 69 2.7 CALM 0 0 0 0 - - 0.0
26/06:00pm 14.2 12.4 7.0 62 3.5 SW 6 9 3 5 - - 0.0
26/05:30pm 15.5 14.5 7.3 58 4.1 SW 2 9 1 5 - - 0.0
26/05:00pm 16.6 15.1 8.3 58 4.3 SW 6 13 3 7 - - 0.0
26/04:30pm 16.3 14.8 8.3 59 4.1 SW 6 9 3 5 - - 0.0
26/04:00pm 16.8 15.0 7.2 53 4.8 SSW 6 13 3 7 - - 0.0
26/03:30pm 18.7 16.0 7.2 47 5.9 WSW 11 19 6 10 - - 0.0
26/03:00pm 18.7 15.7 6.2 44 6.2 W 11 19 6 10 - - 0.0
26/02:30pm 18.3 15.2 5.5 43 6.3 WSW 11 20 6 11 - - 0.0
26/02:00pm 19.6 17.1 6.7 43 6.5 W 9 17 5 9 - - 0.0
26/01:30pm 18.1 15.0 5.7 44 6.1 WNW 11 20 6 11 - - 0.0
26/01:00pm 17.6 14.6 5.9 46 5.8 SW 11 20 6 11 - - 0.0
26/12:30pm 17.2 15.0 5.2 45 5.8 WSW 6 9 3 5 - - 0.0
26/12:00pm 16.5 14.3 6.1 50 5.1 N 7 13 4 7 - - 0.0
26/11:30am 15.7 13.7 6.2 53 4.7 W 6 11 3 6 - - 0.0
26/11:00am 15.0 13.0 6.3 56 4.2 S 6 9 3 5 - - 0.0
26/10:30am 16.2 15.0 8.2 59 4.1 SSW 4 9 2 5 - - 0.0
26/10:00am 14.9 13.1 7.9 63 3.5 SSW 7 15 4 8 - - 0.0
26/09:30am 14.1 13.7 9.9 76 2.2 N 2 7 1 4 - - 0.0
26/09:00am 11.1 11.4 10.8 98 0.2 CALM 0 0 0 0 - - 0.0
26/08:30am 8.3 7.9 8.2 99 0.0 CALM 0 0 0 0 - - 0.0
26/08:00am 6.6 5.8 6.5 99 0.0 CALM 0 0 0 0 - - 0.0
26/07:30am 5.2 4.1 4.9 98 0.1 CALM 0 0 0 0 - - 0.0
26/07:00am 4.1 2.7 3.7 97 0.2 CALM 0 0 0 0 - - 0.0
26/06:30am 3.9 2.5 3.5 97 0.2 CALM 0 0 0 0 - - 0.0
26/06:00am 3.2 1.6 2.6 96 0.2 CALM 0 0 0 0 - - 0.0
26/05:30am 3.1 1.5 2.5 96 0.2 CALM 0 0 0 0 - - 0.0
26/05:00am 3.0 1.4 2.4 96 0.2 CALM 0 0 0 0 - - 0.0
26/04:30am 3.4 1.9 2.8 96 0.2 CALM 0 0 0 0 - - 0.0
26/04:00am 3.4 1.8 2.7 95 0.3 CALM 0 0 0 0 - - 0.0
26/03:30am 3.6 2.1 2.9 95 0.3 CALM 0 0 0 0 - - 0.0
26/03:00am 3.9 2.4 3.2 95 0.3 CALM 0 0 0 0 - - 0.0
26/02:30am 4.1 2.6 3.2 94 0.4 CALM 0 0 0 0 - - 0.0
26/02:00am 4.4 3.0 3.5 94 0.4 CALM 0 0 0 0 - - 0.0
26/01:30am 4.9 3.6 4.0 94 0.4 CALM 0 0 0 0 - - 0.0
26/01:00am 5.2 3.9 4.3 94 0.4 CALM 0 0 0 0 - - 0.0
26/12:30am 5.4 4.2 4.4 93 0.4 CALM 0 0 0 0 - - 0.0
26/12:00am 6.3 5.2 5.3 93 0.4 CALM 0 0 0 0 - - 0.0
 
Date/Time
WST
Temp
°C
App
Temp
°C
Dew
Point
°C
Rel
Hum
%
Delta-T
°C
Wind Press
QNH
hPa
Press
MSL
hPa
Rain since
9am
mm
Dir  Spd
km/h
Gust
km/h
Spd
kts
Gust
kts
25/11:30pm 6.6 5.6 5.6 93 0.4 CALM 0 0 0 0 - - 0.0
25/11:00pm 7.4 6.5 6.2 92 0.6 CALM 0 0 0 0 - - 0.0
25/10:30pm 7.8 7.0 6.6 92 0.6 CALM 0 0 0 0 - - 0.0
25/10:00pm 8.2 7.4 6.5 89 0.8 CALM 0 0 0 0 - - 0.0
25/09:30pm 9.0 8.3 7.1 88 0.9 CALM 0 0 0 0 - - 0.0
25/09:00pm 10.0 9.5 7.8 86 1.1 CALM 0 0 0 0 - - 0.0
25/08:30pm 10.6 10.1 7.8 83 1.4 CALM 0 0 0 0 - - 0.0
25/08:00pm 11.2 10.7 7.7 79 1.7 CALM 0 0 0 0 - - 0.0
25/07:30pm 12.3 11.5 8.2 76 2.0 NW 2 7 1 4 - - 0.0
25/07:00pm 13.2 12.5 8.7 74 2.3 NW 2 7 1 4 - - 0.0
25/06:30pm 14.3 13.3 8.7 69 2.9 W 4 9 2 5 - - 0.0
25/06:00pm 15.4 13.9 8.6 64 3.5 W 6 13 3 7 - - 0.0
25/05:30pm 16.0 13.6 8.7 62 3.8 WNW 11 17 6 9 - - 0.0
25/05:00pm 16.6 14.2 8.8 60 4.0 WNW 11 17 6 9 - - 0.0
25/04:30pm 17.9 15.7 9.3 57 4.5 WNW 11 20 6 11 - - 0.0
25/04:00pm 18.3 15.0 9.4 56 4.7 W 17 28 9 15 - - 0.0
25/03:30pm 18.7 16.2 9.8 56 4.8 WNW 13 26 7 14 - - 0.0
25/03:00pm 19.0 16.5 9.8 55 4.9 WNW 13 28 7 15 - - 0.0
25/02:30pm 19.5 17.1 10.2 55 5.0 NW 13 20 7 11 - - 0.0
25/02:00pm 19.9 17.7 9.2 50 5.7 WNW 11 24 6 13 - - 0.0
25/01:30pm 19.1 16.7 8.7 51 5.5 W 11 20 6 11 - - 0.0
25/01:00pm 18.8 16.3 8.2 50 5.5 WNW 11 20 6 11 - - 0.0
25/12:30pm 19.2 16.9 9.1 52 5.4 WNW 11 20 6 11 - - 0.0
25/12:00pm 17.9 14.7 7.0 49 5.5 W 13 22 7 12 - - 0.0
25/11:30am 18.9 16.2 9.1 53 5.2 WNW 13 24 7 13 - - 0.0
25/11:00am 16.3 12.4 7.3 55 4.5 WSW 17 28 9 15 - - 0.0
25/10:30am 17.7 15.0 9.1 57 4.5 WNW 13 20 7 11 - - 0.0
25/10:00am 16.5 13.7 8.5 59 4.1 WSW 13 22 7 12 - - 0.0
25/09:30am 16.8 14.2 9.5 62 3.8 WSW 13 22 7 12 - - 0.0
25/09:00am 15.8 13.2 9.2 65 3.4 W 13 28 7 15 - - 0.0
25/08:30am 14.9 12.9 10.1 73 2.5 WSW 11 22 6 12 - - 0.0
25/08:00am 13.7 13.3 12.9 95 0.4 SW 7 11 4 6 - - 0.0
25/07:30am 11.9 12.4 11.7 99 0.1 CALM 0 0 0 0 - - 0.0
25/07:00am 10.0 10.0 9.9 99 0.1 CALM 0 0 0 0 - - 0.0
25/06:30am 9.0 8.8 8.9 99 0.0 CALM 0 0 0 0 - - 0.0
25/06:00am 8.5 8.1 8.4 99 0.0 CALM 0 0 0 0 - - 0.0
25/05:30am 8.1 7.6 8.0 99 0.0 CALM 0 0 0 0 - - 0.0
25/05:00am 7.6 7.0 7.3 98 0.1 CALM 0 0 0 0 - - 0.0
25/04:30am 6.7 5.9 6.3 97 0.2 CALM 0 0 0 0 - - 0.0
25/04:00am 6.8 6.0 6.4 97 0.2 CALM 0 0 0 0 - - 0.0
25/03:30am 7.4 6.7 7.0 97 0.2 CALM 0 0 0 0 - - 0.0
25/03:00am 7.7 7.1 7.3 97 0.2 CALM 0 0 0 0 - - 0.0
25/02:30am 7.9 7.3 7.5 97 0.2 CALM 0 0 0 0 - - 0.0
25/02:00am 7.8 7.2 7.2 96 0.3 CALM 0 0 0 0 - - 0.0
25/01:30am 7.6 6.9 7.0 96 0.3 CALM 0 0 0 0 - - 0.0
25/01:00am 7.4 6.6 6.7 95 0.3 CALM 0 0 0 0 - - 0.0
25/12:30am 7.8 7.1 6.9 94 0.4 CALM 0 0 0 0 - - 0.0
25/12:00am 8.0 7.3 6.9 93 0.5 CALM 0 0 0 0 - - 0.0
 
Date/Time
WST
Temp
°C
App
Temp
°C
Dew
Point
°C
Rel
Hum
%
Delta-T
°C
Wind Press
QNH
hPa
Press
MSL
hPa
Rain since
9am
mm
Dir  Spd
km/h
Gust
km/h
Spd
kts
Gust
kts
24/11:30pm 8.4 7.8 7.3 93 0.5 CALM 0 0 0 0 - - 0.0
24/11:00pm 9.3 8.9 8.2 93 0.5 CALM 0 4 0 2 - - 0.0
24/10:30pm 9.8 9.5 8.6 92 0.6 CALM 0 0 0 0 - - 0.0
24/10:00pm 10.8 10.7 9.6 92 0.6 CALM 0 0 0 0 - - 0.0
24/09:30pm 11.3 11.3 9.9 91 0.7 CALM 0 0 0 0 - - 0.0
24/09:00pm 12.4 11.9 10.8 90 0.8 N 4 7 2 4 - - 0.0
24/08:30pm 12.9 13.2 10.8 87 1.1 CALM 0 0 0 0 - - 0.0
24/08:00pm 13.7 13.4 11.4 86 1.2 NW 4 7 2 4 - - 0.0
24/07:30pm 14.4 13.6 11.7 84 1.5 WNW 7 13 4 7 - - 0.0
24/07:00pm 15.3 14.2 11.9 80 1.9 NW 9 19 5 10 - - 0.0
24/06:30pm 15.9 14.8 12.1 78 2.1 NW 9 19 5 10 - - 0.0
24/06:00pm 16.3 15.9 12.5 78 2.1 WNW 6 13 3 7 - - 0.0
24/05:30pm 16.5 15.2 12.5 77 2.2 WNW 11 19 6 10 - - 0.0
24/05:00pm 17.7 16.2 11.9 69 3.2 WNW 11 20 6 11 - - 0.0
24/04:30pm 19.5 17.6 10.5 56 4.9 WNW 11 20 6 11 - - 0.0
24/04:00pm 20.5 18.5 10.0 51 5.7 W 11 19 6 10 - - 0.0
24/03:30pm 20.7 19.2 11.9 57 5.0 WNW 11 17 6 9 - - 0.0
24/03:00pm 20.5 19.3 12.7 61 4.4 WNW 11 19 6 10 - - 0.0
24/02:30pm 19.9 18.7 12.9 64 4.0 WNW 11 22 6 12 - - 0.0
24/02:00pm 19.0 17.5 13.2 69 3.3 NW 13 20 7 11 - - 0.0
24/01:30pm 19.1 18.4 13.3 69 3.3 W 9 17 5 9 - - 0.0
24/01:00pm 19.2 17.6 12.9 67 3.6 WNW 13 20 7 11 - - 0.0
24/12:30pm 18.8 17.0 12.1 65 3.7 W 13 20 7 11 - - 0.0
24/12:00pm 17.9 16.8 13.0 73 2.8 W 11 20 6 11 - - 0.0
24/11:30am 17.5 16.3 12.8 74 2.6 WNW 11 19 6 10 - - 0.0
24/11:00am 17.4 16.4 13.3 77 2.3 WNW 11 20 6 11 - - 0.0
24/10:30am 16.9 15.7 12.8 77 2.3 WNW 11 19 6 10 - - 0.0
24/10:00am 17.3 16.5 13.0 76 2.4 WNW 9 15 5 8 - - 0.0
24/09:30am 16.0 16.6 13.1 83 1.6 NNW 2 7 1 4 - - 0.0
24/09:00am 14.0 15.0 13.1 94 0.5 CALM 0 0 0 0 - - 0.0
24/08:30am 12.2 12.7 11.6 96 0.3 CALM 0 0 0 0 - - 0.0
24/08:00am 11.0 11.2 10.4 96 0.3 CALM 0 0 0 0 - - 0.0
24/07:30am 9.7 9.5 8.9 95 0.4 CALM 0 0 0 0 - - 0.0
24/07:00am 8.9 8.5 8.1 95 0.4 CALM 0 0 0 0 - - 0.0
24/06:30am 8.1 7.5 7.2 94 0.4 CALM 0 0 0 0 - - 0.0
24/06:00am 7.3 5.3 6.4 94 0.4 NNE 6 9 3 5 - - 0.0
24/05:30am 7.0 6.1 5.9 93 0.5 CALM 0 0 0 0 - - 0.0
24/05:00am 6.4 5.4 5.4 93 0.4 CALM 0 0 0 0 - - 0.0
24/04:30am 6.5 5.5 5.5 93 0.4 CALM 0 0 0 0 - - 0.0
24/04:00am 6.8 5.8 5.7 93 0.5 CALM 0 0 0 0 - - 0.0
24/03:30am 7.2 6.3 6.1 93 0.5 CALM 0 0 0 0 - - 0.0
24/03:00am 7.5 6.7 6.3 92 0.6 CALM 0 0 0 0 - - 0.0
24/02:30am 7.7 6.9 6.5 92 0.6 CALM 0 0 0 0 - - 0.0
24/02:00am 8.0 7.3 6.8 92 0.6 CALM 0 0 0 0 - - 0.0
24/01:30am 8.1 7.3 6.7 91 0.7 CALM 0 0 0 0 - - 0.0
24/01:00am 8.5 7.8 7.1 91 0.7 CALM 0 0 0 0 - - 0.0
24/12:30am 8.6 7.9 7.1 90 0.7 CALM 0 0 0 0 - - 0.0
24/12:00am 9.0 8.4 7.5 90 0.7 CALM 0 0 0 0 - - 0.0
 
Date/Time
WST
Temp
°C
App
Temp
°C
Dew
Point
°C
Rel
Hum
%
Delta-T
°C
Wind Press
QNH
hPa
Press
MSL
hPa
Rain since
9am
mm
Dir  Spd
km/h
Gust
km/h
Spd
kts
Gust
kts
23/11:30pm 9.5 9.0 7.8 89 0.8 CALM 0 0 0 0 - - 0.0
23/11:00pm 9.8 9.3 7.9 88 0.9 CALM 0 0 0 0 - - 0.0
23/10:30pm 10.3 9.9 8.2 87 1.0 CALM 0 0 0 0 - - 0.0
23/10:00pm 10.8 10.5 8.6 86 1.1 CALM 0 0 0 0 - - 0.0
23/09:30pm 11.5 11.2 8.5 82 1.5 CALM 0 0 0 0 - - 0.0

Other Formats:

Comma delimited format used in spreadsheet applications
http://www.bom.gov.au/fwo/IDW60801/IDW60801.95621.axf

JavaScript Object Notation format (JSON) in row-major order
http://www.bom.gov.au/fwo/IDW60801/IDW60801.95621.json